sensor_id;sensor_type;location;lat;lon;timestamp;temperature;humidity
15872;DHT22;8035;51.962;7.162;2023-05-20T00:01:58;12.50;99.90
15872;DHT22;8035;51.962;7.162;2023-05-20T00:04:24;12.50;99.90
15872;DHT22;8035;51.962;7.162;2023-05-20T00:06:49;12.50;99.90
15872;DHT22;8035;51.962;7.162;2023-05-20T00:09:15;12.40;99.90
15872;DHT22;8035;51.962;7.162;2023-05-20T00:11:45;12.40;99.90
15872;DHT22;8035;51.962;7.162;2023-05-20T00:14:10;12.40;99.90
15872;DHT22;8035;51.962;7.162;2023-05-20T00:16:36;12.40;99.90
15872;DHT22;8035;51.962;7.162;2023-05-20T00:19:01;12.30;99.90
15872;DHT22;8035;51.962;7.162;2023-05-20T00:21:27;12.30;99.90
15872;DHT22;8035;51.962;7.162;2023-05-20T00:23:54;12.30;99.90
15872;DHT22;8035;51.962;7.162;2023-05-20T00:26:20;12.30;99.90
15872;DHT22;8035;51.962;7.162;2023-05-20T00:28:46;12.20;99.90
15872;DHT22;8035;51.962;7.162;2023-05-20T00:31:11;12.20;99.90
15872;DHT22;8035;51.962;7.162;2023-05-20T00:33:37;12.20;99.90
15872;DHT22;8035;51.962;7.162;2023-05-20T00:36:03;12.20;99.90
15872;DHT22;8035;51.962;7.162;2023-05-20T00:38:28;12.20;99.90
15872;DHT22;8035;51.962;7.162;2023-05-20T00:40:54;12.20;99.90
15872;DHT22;8035;51.962;7.162;2023-05-20T00:43:19;12.10;99.90
15872;DHT22;8035;51.962;7.162;2023-05-20T00:45:46;12.10;99.90
15872;DHT22;8035;51.962;7.162;2023-05-20T00:48:12;12.10;99.90
15872;DHT22;8035;51.962;7.162;2023-05-20T00:50:38;12.10;99.90
15872;DHT22;8035;51.962;7.162;2023-05-20T00:53:05;12.10;99.90
15872;DHT22;8035;51.962;7.162;2023-05-20T00:55:31;12.00;99.90
15872;DHT22;8035;51.962;7.162;2023-05-20T00:57:57;12.00;99.90
15872;DHT22;8035;51.962;7.162;2023-05-20T01:00:23;12.00;99.90
15872;DHT22;8035;51.962;7.162;2023-05-20T01:02:48;12.00;99.90
15872;DHT22;8035;51.962;7.162;2023-05-20T01:05:14;12.00;99.90
15872;DHT22;8035;51.962;7.162;2023-05-20T01:07:40;12.00;99.90
15872;DHT22;8035;51.962;7.162;2023-05-20T01:10:06;12.00;99.90
15872;DHT22;8035;51.962;7.162;2023-05-20T01:12:38;11.90;99.90
15872;DHT22;8035;51.962;7.162;2023-05-20T01:15:12;11.90;99.90
15872;DHT22;8035;51.962;7.162;2023-05-20T01:17:43;11.90;99.90
15872;DHT22;8035;51.962;7.162;2023-05-20T01:20:09;11.90;99.90
15872;DHT22;8035;51.962;7.162;2023-05-20T01:22:57;11.90;99.90
15872;DHT22;8035;51.962;7.162;2023-05-20T01:25:22;11.90;99.90
15872;DHT22;8035;51.962;7.162;2023-05-20T01:27:50;11.90;99.90
15872;DHT22;8035;51.962;7.162;2023-05-20T01:30:16;11.80;99.90
15872;DHT22;8035;51.962;7.162;2023-05-20T01:32:53;11.80;99.90
15872;DHT22;8035;51.962;7.162;2023-05-20T01:35:22;11.80;99.90
15872;DHT22;8035;51.962;7.162;2023-05-20T01:37:48;11.80;99.90
15872;DHT22;8035;51.962;7.162;2023-05-20T01:40:15;11.80;99.90
15872;DHT22;8035;51.962;7.162;2023-05-20T01:42:42;11.80;99.90
15872;DHT22;8035;51.962;7.162;2023-05-20T01:45:10;11.70;99.90
15872;DHT22;8035;51.962;7.162;2023-05-20T01:47:35;11.70;99.90
15872;DHT22;8035;51.962;7.162;2023-05-20T01:50:01;11.60;99.90
15872;DHT22;8035;51.962;7.162;2023-05-20T01:52:26;11.60;99.90
15872;DHT22;8035;51.962;7.162;2023-05-20T01:54:52;11.60;99.90
15872;DHT22;8035;51.962;7.162;2023-05-20T01:57:19;11.60;99.90
15872;DHT22;8035;51.962;7.162;2023-05-20T01:59:45;11.60;99.90
15872;DHT22;8035;51.962;7.162;2023-05-20T02:02:12;11.50;99.90
15872;DHT22;8035;51.962;7.162;2023-05-20T02:04:37;11.50;99.90
15872;DHT22;8035;51.962;7.162;2023-05-20T02:07:03;11.50;99.90
15872;DHT22;8035;51.962;7.162;2023-05-20T02:09:29;11.50;99.90
15872;DHT22;8035;51.962;7.162;2023-05-20T02:11:54;11.40;99.90
15872;DHT22;8035;51.962;7.162;2023-05-20T02:14:20;11.40;99.90
15872;DHT22;8035;51.962;7.162;2023-05-20T02:16:45;11.40;99.90
15872;DHT22;8035;51.962;7.162;2023-05-20T02:19:12;11.40;99.90
15872;DHT22;8035;51.962;7.162;2023-05-20T02:21:41;11.30;99.90
15872;DHT22;8035;51.962;7.162;2023-05-20T02:24:07;11.30;99.90
15872;DHT22;8035;51.962;7.162;2023-05-20T02:26:33;11.30;99.90
15872;DHT22;8035;51.962;7.162;2023-05-20T02:28:59;11.30;99.90
15872;DHT22;8035;51.962;7.162;2023-05-20T02:31:24;11.30;99.90
15872;DHT22;8035;51.962;7.162;2023-05-20T02:33:50;11.30;99.90
15872;DHT22;8035;51.962;7.162;2023-05-20T02:36:16;11.30;99.90
15872;DHT22;8035;51.962;7.162;2023-05-20T02:38:42;11.20;99.90
15872;DHT22;8035;51.962;7.162;2023-05-20T02:41:07;11.20;99.90
15872;DHT22;8035;51.962;7.162;2023-05-20T02:43:33;11.20;99.90
15872;DHT22;8035;51.962;7.162;2023-05-20T02:46:01;11.20;99.90
15872;DHT22;8035;51.962;7.162;2023-05-20T02:48:27;11.20;99.90
15872;DHT22;8035;51.962;7.162;2023-05-20T02:50:52;11.20;99.90
15872;DHT22;8035;51.962;7.162;2023-05-20T02:53:18;11.20;99.90
15872;DHT22;8035;51.962;7.162;2023-05-20T02:55:45;11.10;99.90
15872;DHT22;8035;51.962;7.162;2023-05-20T02:58:12;11.10;99.90
15872;DHT22;8035;51.962;7.162;2023-05-20T03:00:38;11.00;99.90
15872;DHT22;8035;51.962;7.162;2023-05-20T03:03:05;11.00;99.90
15872;DHT22;8035;51.962;7.162;2023-05-20T03:05:38;10.90;99.90
15872;DHT22;8035;51.962;7.162;2023-05-20T03:08:08;11.00;99.90
15872;DHT22;8035;51.962;7.162;2023-05-20T03:10:35;10.90;99.90
15872;DHT22;8035;51.962;7.162;2023-05-20T03:13:01;10.90;99.90
15872;DHT22;8035;51.962;7.162;2023-05-20T03:15:26;10.90;99.90
15872;DHT22;8035;51.962;7.162;2023-05-20T03:17:52;10.90;99.90
15872;DHT22;8035;51.962;7.162;2023-05-20T03:20:18;10.90;99.90
15872;DHT22;8035;51.962;7.162;2023-05-20T03:22:44;10.90;99.90
15872;DHT22;8035;51.962;7.162;2023-05-20T03:25:10;10.90;99.90
15872;DHT22;8035;51.962;7.162;2023-05-20T03:27:36;10.80;99.90
15872;DHT22;8035;51.962;7.162;2023-05-20T03:30:02;10.80;99.90
15872;DHT22;8035;51.962;7.162;2023-05-20T03:32:29;10.90;99.90
15872;DHT22;8035;51.962;7.162;2023-05-20T03:34:54;10.80;99.90
15872;DHT22;8035;51.962;7.162;2023-05-20T03:37:22;10.80;99.90
15872;DHT22;8035;51.962;7.162;2023-05-20T03:39:48;10.80;99.90
15872;DHT22;8035;51.962;7.162;2023-05-20T03:42:13;10.80;99.90
15872;DHT22;8035;51.962;7.162;2023-05-20T03:44:39;10.80;99.90
15872;DHT22;8035;51.962;7.162;2023-05-20T03:47:04;10.70;99.90
15872;DHT22;8035;51.962;7.162;2023-05-20T03:49:30;10.80;99.90
15872;DHT22;8035;51.962;7.162;2023-05-20T03:51:55;10.80;99.90
15872;DHT22;8035;51.962;7.162;2023-05-20T03:54:21;10.80;99.90
15872;DHT22;8035;51.962;7.162;2023-05-20T03:56:46;10.80;99.90
15872;DHT22;8035;51.962;7.162;2023-05-20T03:59:13;10.80;99.90
15872;DHT22;8035;51.962;7.162;2023-05-20T04:01:39;10.70;99.90
15872;DHT22;8035;51.962;7.162;2023-05-20T04:04:04;10.80;99.90
15872;DHT22;8035;51.962;7.162;2023-05-20T04:06:31;10.70;99.90
15872;DHT22;8035;51.962;7.162;2023-05-20T04:08:57;10.70;99.90
15872;DHT22;8035;51.962;7.162;2023-05-20T04:11:22;10.70;99.90
15872;DHT22;8035;51.962;7.162;2023-05-20T04:13:48;10.70;99.90
15872;DHT22;8035;51.962;7.162;2023-05-20T04:16:14;10.80;99.90
15872;DHT22;8035;51.962;7.162;2023-05-20T04:18:39;10.80;99.90
15872;DHT22;8035;51.962;7.162;2023-05-20T04:21:05;10.90;99.90
15872;DHT22;8035;51.962;7.162;2023-05-20T04:23:30;10.90;99.90
15872;DHT22;8035;51.962;7.162;2023-05-20T04:25:56;10.90;99.90
15872;DHT22;8035;51.962;7.162;2023-05-20T04:28:27;10.90;99.90
15872;DHT22;8035;51.962;7.162;2023-05-20T04:31:01;10.90;99.90
15872;DHT22;8035;51.962;7.162;2023-05-20T04:33:31;11.00;99.90
15872;DHT22;8035;51.962;7.162;2023-05-20T04:35:58;11.00;99.90
15872;DHT22;8035;51.962;7.162;2023-05-20T04:38:24;11.10;99.90
15872;DHT22;8035;51.962;7.162;2023-05-20T04:40:57;11.10;99.90
15872;DHT22;8035;51.962;7.162;2023-05-20T04:43:24;11.10;99.90
15872;DHT22;8035;51.962;7.162;2023-05-20T04:45:54;11.20;99.90
15872;DHT22;8035;51.962;7.162;2023-05-20T04:48:20;11.30;99.90
15872;DHT22;8035;51.962;7.162;2023-05-20T04:50:47;11.30;99.90
15872;DHT22;8035;51.962;7.162;2023-05-20T04:53:14;11.30;99.90
15872;DHT22;8035;51.962;7.162;2023-05-20T04:55:40;11.40;99.90
15872;DHT22;8035;51.962;7.162;2023-05-20T04:58:05;11.50;99.90
15872;DHT22;8035;51.962;7.162;2023-05-20T05:00:32;11.50;99.90
15872;DHT22;8035;51.962;7.162;2023-05-20T05:02:58;11.50;99.90
15872;DHT22;8035;51.962;7.162;2023-05-20T05:05:24;11.60;99.90
15872;DHT22;8035;51.962;7.162;2023-05-20T05:07:49;11.60;99.90
15872;DHT22;8035;51.962;7.162;2023-05-20T05:10:15;11.60;99.90
15872;DHT22;8035;51.962;7.162;2023-05-20T05:12:40;11.60;99.90
15872;DHT22;8035;51.962;7.162;2023-05-20T05:15:06;11.70;99.90
15872;DHT22;8035;51.962;7.162;2023-05-20T05:17:32;11.70;99.90
15872;DHT22;8035;51.962;7.162;2023-05-20T05:19:58;11.70;99.90
15872;DHT22;8035;51.962;7.162;2023-05-20T05:22:23;11.80;99.90
15872;DHT22;8035;51.962;7.162;2023-05-20T05:24:49;11.90;99.90
15872;DHT22;8035;51.962;7.162;2023-05-20T05:27:14;12.00;99.90
15872;DHT22;8035;51.962;7.162;2023-05-20T05:29:40;12.10;99.90
15872;DHT22;8035;51.962;7.162;2023-05-20T05:32:05;12.20;99.90
15872;DHT22;8035;51.962;7.162;2023-05-20T05:34:31;12.30;99.90
15872;DHT22;8035;51.962;7.162;2023-05-20T05:36:57;12.40;99.90
15872;DHT22;8035;51.962;7.162;2023-05-20T05:39:22;12.50;99.90
15872;DHT22;8035;51.962;7.162;2023-05-20T05:41:48;12.50;99.90
15872;DHT22;8035;51.962;7.162;2023-05-20T05:44:13;12.60;99.90
15872;DHT22;8035;51.962;7.162;2023-05-20T05:46:39;12.80;99.90
15872;DHT22;8035;51.962;7.162;2023-05-20T05:49:05;12.90;99.90
15872;DHT22;8035;51.962;7.162;2023-05-20T05:51:30;13.00;99.90
15872;DHT22;8035;51.962;7.162;2023-05-20T05:53:56;13.00;99.90
15872;DHT22;8035;51.962;7.162;2023-05-20T05:56:21;13.20;99.90
15872;DHT22;8035;51.962;7.162;2023-05-20T05:58:47;13.30;99.90
15872;DHT22;8035;51.962;7.162;2023-05-20T06:01:13;13.30;99.90
15872;DHT22;8035;51.962;7.162;2023-05-20T06:03:38;13.50;99.90
15872;DHT22;8035;51.962;7.162;2023-05-20T06:06:04;13.60;99.90
15872;DHT22;8035;51.962;7.162;2023-05-20T06:08:30;13.80;99.90
15872;DHT22;8035;51.962;7.162;2023-05-20T06:10:55;14.00;99.90
15872;DHT22;8035;51.962;7.162;2023-05-20T06:13:22;14.20;99.90
15872;DHT22;8035;51.962;7.162;2023-05-20T06:15:50;14.40;99.90
15872;DHT22;8035;51.962;7.162;2023-05-20T06:18:16;14.60;99.90
15872;DHT22;8035;51.962;7.162;2023-05-20T06:20:41;14.80;99.90
15872;DHT22;8035;51.962;7.162;2023-05-20T06:23:07;14.90;99.90
15872;DHT22;8035;51.962;7.162;2023-05-20T06:25:32;15.00;99.90
15872;DHT22;8035;51.962;7.162;2023-05-20T06:27:58;15.00;99.90
15872;DHT22;8035;51.962;7.162;2023-05-20T06:30:23;15.00;99.90
15872;DHT22;8035;51.962;7.162;2023-05-20T06:32:49;15.10;99.90
15872;DHT22;8035;51.962;7.162;2023-05-20T06:35:15;15.20;99.90
15872;DHT22;8035;51.962;7.162;2023-05-20T06:37:40;15.20;99.90
15872;DHT22;8035;51.962;7.162;2023-05-20T06:40:06;15.20;99.90
15872;DHT22;8035;51.962;7.162;2023-05-20T06:42:32;15.10;99.90
15872;DHT22;8035;51.962;7.162;2023-05-20T06:44:57;15.10;99.90
15872;DHT22;8035;51.962;7.162;2023-05-20T06:47:23;15.00;99.90
15872;DHT22;8035;51.962;7.162;2023-05-20T06:49:48;15.00;99.90
15872;DHT22;8035;51.962;7.162;2023-05-20T06:52:14;15.00;99.90
15872;DHT22;8035;51.962;7.162;2023-05-20T06:54:39;15.20;99.90
15872;DHT22;8035;51.962;7.162;2023-05-20T06:57:09;15.30;99.90
15872;DHT22;8035;51.962;7.162;2023-05-20T06:59:35;15.40;99.90
15872;DHT22;8035;51.962;7.162;2023-05-20T07:02:02;15.60;99.90
15872;DHT22;8035;51.962;7.162;2023-05-20T07:04:28;15.70;99.90
15872;DHT22;8035;51.962;7.162;2023-05-20T07:06:53;15.80;99.90
15872;DHT22;8035;51.962;7.162;2023-05-20T07:09:19;15.80;99.90
15872;DHT22;8035;51.962;7.162;2023-05-20T07:11:44;15.80;99.90
15872;DHT22;8035;51.962;7.162;2023-05-20T07:14:10;15.90;99.90
15872;DHT22;8035;51.962;7.162;2023-05-20T07:16:36;16.00;99.90
15872;DHT22;8035;51.962;7.162;2023-05-20T07:19:02;16.00;99.90
15872;DHT22;8035;51.962;7.162;2023-05-20T07:21:28;16.20;99.90
15872;DHT22;8035;51.962;7.162;2023-05-20T07:23:53;16.30;99.90
15872;DHT22;8035;51.962;7.162;2023-05-20T07:26:19;16.50;99.90
15872;DHT22;8035;51.962;7.162;2023-05-20T07:28:44;16.70;99.90
15872;DHT22;8035;51.962;7.162;2023-05-20T07:31:11;16.80;99.90
15872;DHT22;8035;51.962;7.162;2023-05-20T07:33:37;16.90;99.90
15872;DHT22;8035;51.962;7.162;2023-05-20T07:36:03;17.00;99.90
15872;DHT22;8035;51.962;7.162;2023-05-20T07:38:28;17.00;99.90
15872;DHT22;8035;51.962;7.162;2023-05-20T07:40:54;17.00;99.90
15872;DHT22;8035;51.962;7.162;2023-05-20T07:43:19;17.00;99.90
15872;DHT22;8035;51.962;7.162;2023-05-20T07:45:45;17.00;99.90
15872;DHT22;8035;51.962;7.162;2023-05-20T07:48:11;17.00;99.90
15872;DHT22;8035;51.962;7.162;2023-05-20T07:50:37;17.20;99.90
15872;DHT22;8035;51.962;7.162;2023-05-20T07:53:04;17.30;99.90
15872;DHT22;8035;51.962;7.162;2023-05-20T07:55:32;17.30;99.90
15872;DHT22;8035;51.962;7.162;2023-05-20T07:57:58;17.40;99.90
15872;DHT22;8035;51.962;7.162;2023-05-20T08:00:23;17.50;99.90
15872;DHT22;8035;51.962;7.162;2023-05-20T08:02:49;17.60;99.90
15872;DHT22;8035;51.962;7.162;2023-05-20T08:05:15;17.60;99.90
15872;DHT22;8035;51.962;7.162;2023-05-20T08:07:40;17.70;99.90
15872;DHT22;8035;51.962;7.162;2023-05-20T08:10:06;17.70;99.90
15872;DHT22;8035;51.962;7.162;2023-05-20T08:12:32;17.70;99.90
15872;DHT22;8035;51.962;7.162;2023-05-20T08:14:58;17.90;99.90
15872;DHT22;8035;51.962;7.162;2023-05-20T08:17:23;18.10;99.90
15872;DHT22;8035;51.962;7.162;2023-05-20T08:19:49;18.20;99.90
15872;DHT22;8035;51.962;7.162;2023-05-20T08:22:14;18.30;99.90
15872;DHT22;8035;51.962;7.162;2023-05-20T08:24:40;18.40;99.90
15872;DHT22;8035;51.962;7.162;2023-05-20T08:27:05;18.20;99.90
15872;DHT22;8035;51.962;7.162;2023-05-20T08:29:31;17.90;99.90
15872;DHT22;8035;51.962;7.162;2023-05-20T08:31:56;17.80;99.90
15872;DHT22;8035;51.962;7.162;2023-05-20T08:34:22;17.70;99.90
15872;DHT22;8035;51.962;7.162;2023-05-20T08:36:47;17.60;99.90
15872;DHT22;8035;51.962;7.162;2023-05-20T08:39:13;17.50;99.90
15872;DHT22;8035;51.962;7.162;2023-05-20T08:41:39;17.40;99.90
15872;DHT22;8035;51.962;7.162;2023-05-20T08:44:06;17.30;99.90
15872;DHT22;8035;51.962;7.162;2023-05-20T08:46:33;17.10;99.90
15872;DHT22;8035;51.962;7.162;2023-05-20T08:49:00;17.00;99.90
15872;DHT22;8035;51.962;7.162;2023-05-20T08:51:26;17.00;99.90
15872;DHT22;8035;51.962;7.162;2023-05-20T08:53:52;17.00;99.90
15872;DHT22;8035;51.962;7.162;2023-05-20T08:56:19;17.00;99.90
15872;DHT22;8035;51.962;7.162;2023-05-20T08:58:46;16.90;99.90
15872;DHT22;8035;51.962;7.162;2023-05-20T09:01:12;16.90;99.90
15872;DHT22;8035;51.962;7.162;2023-05-20T09:03:37;16.90;99.90
15872;DHT22;8035;51.962;7.162;2023-05-20T09:06:04;16.80;99.90
15872;DHT22;8035;51.962;7.162;2023-05-20T09:08:30;16.80;99.90
15872;DHT22;8035;51.962;7.162;2023-05-20T09:10:57;16.80;99.90
15872;DHT22;8035;51.962;7.162;2023-05-20T09:13:23;16.60;99.90
15872;DHT22;8035;51.962;7.162;2023-05-20T09:15:49;16.50;99.90
15872;DHT22;8035;51.962;7.162;2023-05-20T09:18:14;16.40;99.90
15872;DHT22;8035;51.962;7.162;2023-05-20T09:20:40;16.20;99.90
15872;DHT22;8035;51.962;7.162;2023-05-20T09:23:08;16.20;99.90
15872;DHT22;8035;51.962;7.162;2023-05-20T09:25:35;16.30;99.90
15872;DHT22;8035;51.962;7.162;2023-05-20T09:28:03;16.20;99.90
15872;DHT22;8035;51.962;7.162;2023-05-20T09:30:30;16.20;99.90
15872;DHT22;8035;51.962;7.162;2023-05-20T09:32:57;16.30;99.90
15872;DHT22;8035;51.962;7.162;2023-05-20T09:35:24;16.40;99.90
15872;DHT22;8035;51.962;7.162;2023-05-20T09:37:55;16.50;99.90
15872;DHT22;8035;51.962;7.162;2023-05-20T09:40:27;16.60;99.90
15872;DHT22;8035;51.962;7.162;2023-05-20T09:45:22;16.90;99.90
15872;DHT22;8035;51.962;7.162;2023-05-20T09:47:50;17.00;99.90
15872;DHT22;8035;51.962;7.162;2023-05-20T09:50:16;17.10;99.90
15872;DHT22;8035;51.962;7.162;2023-05-20T09:52:46;17.30;99.90
15872;DHT22;8035;51.962;7.162;2023-05-20T09:55:13;17.40;99.90
15872;DHT22;8035;51.962;7.162;2023-05-20T09:57:39;17.70;99.90
15872;DHT22;8035;51.962;7.162;2023-05-20T10:00:05;18.00;99.90
15872;DHT22;8035;51.962;7.162;2023-05-20T10:02:33;18.20;99.90
15872;DHT22;8035;51.962;7.162;2023-05-20T10:05:02;18.30;99.90
15872;DHT22;8035;51.962;7.162;2023-05-20T10:22:00;19.30;99.90
15872;DHT22;8035;51.962;7.162;2023-05-20T10:24:37;19.80;99.90
15872;DHT22;8035;51.962;7.162;2023-05-20T10:27:10;19.90;99.90
15872;DHT22;8035;51.962;7.162;2023-05-20T10:32:21;19.90;99.90
15872;DHT22;8035;51.962;7.162;2023-05-20T10:34:49;19.90;99.90
15872;DHT22;8035;51.962;7.162;2023-05-20T10:37:26;19.90;99.90
15872;DHT22;8035;51.962;7.162;2023-05-20T10:39:52;19.90;99.90
15872;DHT22;8035;51.962;7.162;2023-05-20T10:42:27;19.90;99.90
15872;DHT22;8035;51.962;7.162;2023-05-20T10:44:54;20.00;99.90
15872;DHT22;8035;51.962;7.162;2023-05-20T10:47:20;19.90;99.90
15872;DHT22;8035;51.962;7.162;2023-05-20T10:49:46;19.70;99.90
15872;DHT22;8035;51.962;7.162;2023-05-20T10:52:16;19.70;99.90
15872;DHT22;8035;51.962;7.162;2023-05-20T10:55:02;19.80;99.90
15872;DHT22;8035;51.962;7.162;2023-05-20T10:57:29;20.10;99.90
15872;DHT22;8035;51.962;7.162;2023-05-20T10:59:56;20.40;99.90
15872;DHT22;8035;51.962;7.162;2023-05-20T11:02:22;20.30;99.90
15872;DHT22;8035;51.962;7.162;2023-05-20T11:04:57;20.30;99.90
15872;DHT22;8035;51.962;7.162;2023-05-20T11:07:27;20.40;99.90
15872;DHT22;8035;51.962;7.162;2023-05-20T11:09:59;20.60;99.90
15872;DHT22;8035;51.962;7.162;2023-05-20T11:12:26;20.60;99.90
15872;DHT22;8035;51.962;7.162;2023-05-20T11:14:52;20.60;99.90
15872;DHT22;8035;51.962;7.162;2023-05-20T11:17:18;20.80;99.90
15872;DHT22;8035;51.962;7.162;2023-05-20T11:19:45;20.90;99.90
15872;DHT22;8035;51.962;7.162;2023-05-20T11:22:10;21.10;99.90
15872;DHT22;8035;51.962;7.162;2023-05-20T11:24:36;21.30;99.90
15872;DHT22;8035;51.962;7.162;2023-05-20T11:27:02;21.30;99.90
15872;DHT22;8035;51.962;7.162;2023-05-20T11:29:28;21.40;99.90
15872;DHT22;8035;51.962;7.162;2023-05-20T11:31:56;21.40;99.90
15872;DHT22;8035;51.962;7.162;2023-05-20T11:34:22;21.50;99.90
15872;DHT22;8035;51.962;7.162;2023-05-20T11:36:54;21.40;99.90
15872;DHT22;8035;51.962;7.162;2023-05-20T11:39:20;21.60;99.90
15872;DHT22;8035;51.962;7.162;2023-05-20T11:41:46;21.70;99.90
15872;DHT22;8035;51.962;7.162;2023-05-20T11:44:12;21.50;99.90
15872;DHT22;8035;51.962;7.162;2023-05-20T11:46:46;21.50;99.90
15872;DHT22;8035;51.962;7.162;2023-05-20T11:49:15;21.50;99.90
15872;DHT22;8035;51.962;7.162;2023-05-20T11:51:42;21.80;99.90
15872;DHT22;8035;51.962;7.162;2023-05-20T11:54:08;21.90;99.90
15872;DHT22;8035;51.962;7.162;2023-05-20T11:56:36;22.00;99.90
15872;DHT22;8035;51.962;7.162;2023-05-20T11:59:03;21.80;99.90
15872;DHT22;8035;51.962;7.162;2023-05-20T12:01:37;21.60;99.90
15872;DHT22;8035;51.962;7.162;2023-05-20T12:04:05;21.60;99.90
15872;DHT22;8035;51.962;7.162;2023-05-20T12:06:31;21.70;99.90
15872;DHT22;8035;51.962;7.162;2023-05-20T12:09:00;21.70;99.90
15872;DHT22;8035;51.962;7.162;2023-05-20T12:11:32;21.80;99.90
15872;DHT22;8035;51.962;7.162;2023-05-20T12:13:58;21.50;99.90
15872;DHT22;8035;51.962;7.162;2023-05-20T12:16:23;21.30;99.90
15872;DHT22;8035;51.962;7.162;2023-05-20T12:18:49;21.50;99.90
15872;DHT22;8035;51.962;7.162;2023-05-20T12:21:14;21.50;99.90
15872;DHT22;8035;51.962;7.162;2023-05-20T12:23:40;21.40;99.90
15872;DHT22;8035;51.962;7.162;2023-05-20T12:26:05;21.50;99.90
15872;DHT22;8035;51.962;7.162;2023-05-20T12:28:31;21.80;99.90
15872;DHT22;8035;51.962;7.162;2023-05-20T12:30:57;21.90;99.90
15872;DHT22;8035;51.962;7.162;2023-05-20T12:33:23;21.50;99.90
15872;DHT22;8035;51.962;7.162;2023-05-20T12:35:48;21.20;99.90
15872;DHT22;8035;51.962;7.162;2023-05-20T12:38:14;21.40;99.90
15872;DHT22;8035;51.962;7.162;2023-05-20T12:40:40;21.60;99.90
15872;DHT22;8035;51.962;7.162;2023-05-20T12:43:05;21.80;99.90
15872;DHT22;8035;51.962;7.162;2023-05-20T12:45:31;22.10;99.90
15872;DHT22;8035;51.962;7.162;2023-05-20T12:47:57;21.90;99.90
15872;DHT22;8035;51.962;7.162;2023-05-20T12:50:23;21.50;99.90
15872;DHT22;8035;51.962;7.162;2023-05-20T12:52:49;21.10;99.90
15872;DHT22;8035;51.962;7.162;2023-05-20T12:55:15;21.20;99.90
15872;DHT22;8035;51.962;7.162;2023-05-20T12:57:45;21.60;99.90
15872;DHT22;8035;51.962;7.162;2023-05-20T13:00:12;21.70;99.90
15872;DHT22;8035;51.962;7.162;2023-05-20T13:02:38;21.30;99.90
15872;DHT22;8035;51.962;7.162;2023-05-20T13:05:05;20.90;99.90
15872;DHT22;8035;51.962;7.162;2023-05-20T13:07:31;20.60;99.90
15872;DHT22;8035;51.962;7.162;2023-05-20T13:09:58;20.30;99.90
15872;DHT22;8035;51.962;7.162;2023-05-20T13:12:23;20.10;99.90
15872;DHT22;8035;51.962;7.162;2023-05-20T13:14:49;20.00;99.90
15872;DHT22;8035;51.962;7.162;2023-05-20T13:17:15;20.00;99.90
15872;DHT22;8035;51.962;7.162;2023-05-20T13:19:40;20.10;99.90
15872;DHT22;8035;51.962;7.162;2023-05-20T13:22:06;20.20;99.90
15872;DHT22;8035;51.962;7.162;2023-05-20T13:24:33;20.30;99.90
15872;DHT22;8035;51.962;7.162;2023-05-20T13:26:59;20.30;99.90
15872;DHT22;8035;51.962;7.162;2023-05-20T13:29:26;20.30;99.90
15872;DHT22;8035;51.962;7.162;2023-05-20T13:31:51;20.20;99.90
15872;DHT22;8035;51.962;7.162;2023-05-20T13:34:17;20.20;99.90
15872;DHT22;8035;51.962;7.162;2023-05-20T13:36:42;20.20;99.90
15872;DHT22;8035;51.962;7.162;2023-05-20T13:39:08;20.30;99.90
15872;DHT22;8035;51.962;7.162;2023-05-20T13:41:34;20.50;99.90
15872;DHT22;8035;51.962;7.162;2023-05-20T13:44:00;20.50;99.90
15872;DHT22;8035;51.962;7.162;2023-05-20T13:46:25;20.60;99.90
15872;DHT22;8035;51.962;7.162;2023-05-20T13:48:51;20.80;99.90
15872;DHT22;8035;51.962;7.162;2023-05-20T13:51:16;20.80;99.90
15872;DHT22;8035;51.962;7.162;2023-05-20T13:53:42;20.80;99.90
15872;DHT22;8035;51.962;7.162;2023-05-20T13:56:07;20.90;99.90
15872;DHT22;8035;51.962;7.162;2023-05-20T13:58:34;21.10;99.90
15872;DHT22;8035;51.962;7.162;2023-05-20T14:01:01;21.30;99.90
15872;DHT22;8035;51.962;7.162;2023-05-20T14:03:28;21.30;99.90
15872;DHT22;8035;51.962;7.162;2023-05-20T14:05:53;21.30;99.90
15872;DHT22;8035;51.962;7.162;2023-05-20T14:08:19;21.40;99.90
15872;DHT22;8035;51.962;7.162;2023-05-20T14:10:45;21.20;99.90
15872;DHT22;8035;51.962;7.162;2023-05-20T14:13:10;20.80;99.90
15872;DHT22;8035;51.962;7.162;2023-05-20T14:15:36;20.60;99.90
15872;DHT22;8035;51.962;7.162;2023-05-20T14:18:02;20.70;99.90
15872;DHT22;8035;51.962;7.162;2023-05-20T14:20:27;20.90;99.90
15872;DHT22;8035;51.962;7.162;2023-05-20T14:22:53;20.90;99.90
15872;DHT22;8035;51.962;7.162;2023-05-20T14:25:18;21.10;99.90
15872;DHT22;8035;51.962;7.162;2023-05-20T14:27:44;21.50;99.90
15872;DHT22;8035;51.962;7.162;2023-05-20T14:30:10;21.60;99.90
15872;DHT22;8035;51.962;7.162;2023-05-20T14:32:36;21.60;99.90
15872;DHT22;8035;51.962;7.162;2023-05-20T14:35:03;21.50;99.90
15872;DHT22;8035;51.962;7.162;2023-05-20T14:37:29;21.50;99.90
15872;DHT22;8035;51.962;7.162;2023-05-20T14:39:55;21.30;99.90
15872;DHT22;8035;51.962;7.162;2023-05-20T14:42:21;20.90;99.90
15872;DHT22;8035;51.962;7.162;2023-05-20T14:44:46;20.60;99.90
15872;DHT22;8035;51.962;7.162;2023-05-20T14:47:12;20.60;99.90
15872;DHT22;8035;51.962;7.162;2023-05-20T14:49:41;20.70;99.90
15872;DHT22;8035;51.962;7.162;2023-05-20T14:52:08;20.60;99.90
15872;DHT22;8035;51.962;7.162;2023-05-20T14:54:34;20.80;99.90
15872;DHT22;8035;51.962;7.162;2023-05-20T14:57:00;20.90;99.90
15872;DHT22;8035;51.962;7.162;2023-05-20T14:59:25;20.90;99.90
15872;DHT22;8035;51.962;7.162;2023-05-20T15:01:50;20.90;99.90
15872;DHT22;8035;51.962;7.162;2023-05-20T15:04:16;21.00;99.90
15872;DHT22;8035;51.962;7.162;2023-05-20T15:06:42;21.00;99.90
15872;DHT22;8035;51.962;7.162;2023-05-20T15:09:07;21.10;99.90
15872;DHT22;8035;51.962;7.162;2023-05-20T15:11:33;21.10;99.90
15872;DHT22;8035;51.962;7.162;2023-05-20T15:13:58;21.10;99.90
15872;DHT22;8035;51.962;7.162;2023-05-20T15:16:24;21.10;99.90
15872;DHT22;8035;51.962;7.162;2023-05-20T15:18:50;21.10;99.90
15872;DHT22;8035;51.962;7.162;2023-05-20T15:21:16;21.10;99.90
15872;DHT22;8035;51.962;7.162;2023-05-20T15:23:42;21.20;99.90
15872;DHT22;8035;51.962;7.162;2023-05-20T15:26:07;21.10;99.90
15872;DHT22;8035;51.962;7.162;2023-05-20T15:28:36;20.90;99.90
15872;DHT22;8035;51.962;7.162;2023-05-20T15:31:02;20.50;99.90
15872;DHT22;8035;51.962;7.162;2023-05-20T15:33:27;20.10;99.90
15872;DHT22;8035;51.962;7.162;2023-05-20T15:35:53;20.10;99.90
15872;DHT22;8035;51.962;7.162;2023-05-20T15:38:19;20.00;99.90
15872;DHT22;8035;51.962;7.162;2023-05-20T15:40:44;20.20;99.90
15872;DHT22;8035;51.962;7.162;2023-05-20T15:43:10;20.40;99.90
15872;DHT22;8035;51.962;7.162;2023-05-20T15:45:35;20.40;99.90
15872;DHT22;8035;51.962;7.162;2023-05-20T15:48:01;20.20;99.90
15872;DHT22;8035;51.962;7.162;2023-05-20T15:50:26;20.00;99.90
15872;DHT22;8035;51.962;7.162;2023-05-20T15:52:52;19.80;99.90
15872;DHT22;8035;51.962;7.162;2023-05-20T15:55:18;19.80;99.90
15872;DHT22;8035;51.962;7.162;2023-05-20T15:57:44;19.90;99.90
15872;DHT22;8035;51.962;7.162;2023-05-20T16:00:10;20.00;99.90